Time;durP1;ratioP1;P1;durP2;ratioP2;P2;SDS_P1;SDS_P2;PMS_P1;PMS_P2;Temp;Humidity;BMP_temperature;BMP_pressure;BME280_temperature;BME280_humidity;BME280_pressure;Samples;Min_cycle;Max_cycle;Signal;HPM_P1;HPM_P2
2021/06/01 00:00:48;;;;;;;3.90;3.60;;;17.70;44.20;;;;;;5013837;28;20616;-50
2021/06/01 00:03:16;;;;;;;4.30;3.40;;;17.70;44.30;;;;;;5005179;28;20632;-50
2021/06/01 00:05:44;;;;;;;3.00;2.80;;;17.60;44.40;;;;;;4995336;28;20643;-50
2021/06/01 00:08:11;;;;;;;4.30;3.90;;;17.60;44.20;;;;;;5006723;28;20751;-49
2021/06/01 00:10:38;;;;;;;3.80;3.23;;;17.60;44.20;;;;;;5014420;28;20667;-50
2021/06/01 00:13:05;;;;;;;4.10;3.70;;;17.50;44.30;;;;;;5015628;28;21190;-50
2021/06/01 00:15:32;;;;;;;5.03;3.70;;;17.50;44.60;;;;;;5014684;28;20630;-49
2021/06/01 00:17:58;;;;;;;3.03;2.83;;;17.40;44.60;;;;;;5014113;28;20651;-49
2021/06/01 00:20:25;;;;;;;4.40;4.10;;;17.40;44.70;;;;;;5014635;28;20739;-48
2021/06/01 00:22:53;;;;;;;4.53;4.00;;;17.20;44.90;;;;;;5014806;28;20644;-49
2021/06/01 00:25:20;;;;;;;3.00;2.70;;;17.20;45.00;;;;;;5013120;28;20631;-49
2021/06/01 00:27:47;;;;;;;4.10;3.80;;;17.20;45.20;;;;;;5013314;28;20663;-49
2021/06/01 00:30:15;;;;;;;4.17;3.77;;;17.20;45.30;;;;;;5012736;28;20706;-49
2021/06/01 00:32:41;;;;;;;3.93;3.63;;;17.20;45.30;;;;;;5012364;28;20681;-50
2021/06/01 00:35:09;;;;;;;3.93;3.63;;;17.20;45.10;;;;;;5012643;28;21046;-50
2021/06/01 00:37:36;;;;;;;4.23;3.80;;;17.20;45.20;;;;;;5012661;28;20635;-49
2021/06/01 00:40:06;;;;;;;4.87;4.47;;;17.10;45.20;;;;;;5012811;28;21023;-49
2021/06/01 00:42:32;;;;;;;4.47;4.07;;;17.10;45.30;;;;;;5012731;28;20644;-49
2021/06/01 00:44:59;;;;;;;4.30;3.90;;;17.00;45.30;;;;;;5014308;28;20624;-49
2021/06/01 00:47:26;;;;;;;4.00;3.70;;;16.90;45.50;;;;;;5013732;28;20648;-49
2021/06/01 00:49:52;;;;;;;5.07;4.37;;;16.80;46.30;;;;;;5014279;28;20663;-51
2021/06/01 00:52:19;;;;;;;4.67;4.27;;;16.70;46.10;;;;;;5014994;28;21094;-49
2021/06/01 00:54:46;;;;;;;4.63;4.20;;;16.50;46.60;;;;;;5014387;28;20678;-49
2021/06/01 00:57:14;;;;;;;5.00;4.60;;;16.40;46.80;;;;;;5013261;28;21234;-48
2021/06/01 00:59:41;;;;;;;4.13;3.83;;;16.40;47.20;;;;;;5012315;28;20656;-50
2021/06/01 01:02:07;;;;;;;4.73;4.23;;;16.30;47.30;;;;;;5012344;28;20687;-49
2021/06/01 01:04:35;;;;;;;8.83;3.87;;;16.30;47.60;;;;;;5012115;28;20636;-49
2021/06/01 01:07:13;;;;;;;4.13;3.60;;;16.20;47.70;;;;;;5011736;28;20620;-49
2021/06/01 01:09:40;;;;;;;3.80;3.50;;;16.10;47.90;;;;;;5011980;28;21138;-49
2021/06/01 01:12:08;;;;;;;5.40;4.27;;;16.00;48.00;;;;;;5011278;28;20631;-48
2021/06/01 01:14:38;;;;;;;6.20;3.70;;;15.90;48.20;;;;;;5013453;28;20681;-49
2021/06/01 01:17:07;;;;;;;4.30;3.93;;;15.80;48.60;;;;;;5013763;28;20706;-49
2021/06/01 01:19:44;;;;;;;4.17;3.87;;;15.80;48.90;;;;;;5012591;28;20721;-49
2021/06/01 01:22:11;;;;;;;3.80;3.50;;;15.90;49.20;;;;;;5014188;28;21204;-49
2021/06/01 01:24:50;;;;;;;4.20;3.57;;;15.90;49.40;;;;;;5013977;28;20623;-49
2021/06/01 01:27:21;;;;;;;4.33;3.93;;;15.90;49.30;;;;;;5013844;28;21008;-49
2021/06/01 01:29:50;;;;;;;6.97;3.90;;;15.90;49.30;;;;;;5013086;28;20733;-48
2021/06/01 01:32:38;;;;;;;5.50;4.00;;;15.90;49.40;;;;;;5013217;28;20619;-49
2021/06/01 01:35:07;;;;;;;4.70;4.30;;;15.90;49.60;;;;;;5013607;28;20663;-49
2021/06/01 01:37:34;;;;;;;4.27;3.90;;;15.90;49.50;;;;;;5013252;28;20639;-49
2021/06/01 01:40:03;;;;;;;4.27;3.97;;;15.80;49.40;;;;;;5013562;28;20627;-50
2021/06/01 01:42:38;;;;;;;5.40;3.40;;;15.70;49.60;;;;;;5012985;28;20694;-49
2021/06/01 01:45:06;;;;;;;4.80;3.60;;;15.70;49.70;;;;;;5013373;28;21187;-50
2021/06/01 01:50:19;;;;;;;4.57;3.63;;;15.70;49.80;;;;;;5013740;28;20686;-50
2021/06/01 01:52:46;;;;;;;6.53;4.47;;;15.60;49.90;;;;;;5013131;28;20976;-49
2021/06/01 01:55:13;;;;;;;4.10;3.80;;;15.60;50.40;;;;;;5012872;28;21084;-48
2021/06/01 01:57:43;;;;;;;4.27;3.97;;;15.60;49.90;;;;;;5012501;28;20674;-50
2021/06/01 02:00:12;;;;;;;3.93;3.63;;;15.60;49.70;;;;;;5009132;28;20620;-49
2021/06/01 02:02:39;;;;;;;3.77;3.47;;;15.60;49.70;;;;;;5010653;28;20627;-50
2021/06/01 02:05:06;;;;;;;4.20;3.87;;;15.60;49.60;;;;;;5010533;28;20640;-49
2021/06/01 02:07:34;;;;;;;3.67;3.37;;;15.60;49.80;;;;;;5010971;28;20722;-50
2021/06/01 02:10:03;;;;;;;4.40;4.10;;;15.60;49.70;;;;;;5011338;28;20656;-50
2021/06/01 02:12:30;;;;;;;7.03;3.63;;;15.70;49.70;;;;;;5011018;28;20670;-50
2021/06/01 02:14:56;;;;;;;4.37;3.60;;;15.60;49.50;;;;;;5011221;28;21258;-50
2021/06/01 02:17:23;;;;;;;3.80;3.50;;;15.60;49.60;;;;;;5010745;28;20697;-50
2021/06/01 02:19:50;;;;;;;3.77;3.47;;;15.50;49.60;;;;;;5010141;28;20632;-50
2021/06/01 02:22:22;;;;;;;5.00;3.63;;;15.50;49.80;;;;;;5011044;28;20631;-50
2021/06/01 02:24:52;;;;;;;3.80;3.50;;;15.50;49.90;;;;;;5010566;28;20639;-50
2021/06/01 02:27:22;;;;;;;3.30;3.07;;;15.50;49.90;;;;;;5006538;28;20701;-50
2021/06/01 02:30:00;;;;;;;3.57;3.30;;;15.50;49.80;;;;;;5009812;28;20672;-50
2021/06/01 02:32:29;;;;;;;3.50;3.20;;;15.40;49.80;;;;;;5010941;28;21200;-50
2021/06/01 02:34:57;;;;;;;3.90;3.60;;;15.40;49.80;;;;;;5010899;28;20632;-49
2021/06/01 02:37:23;;;;;;;5.50;3.10;;;15.50;50.00;;;;;;5010417;28;20746;-50
2021/06/01 02:39:52;;;;;;;3.90;3.50;;;15.40;50.00;;;;;;5010347;28;20640;-50
2021/06/01 02:42:18;;;;;;;3.70;3.40;;;15.40;50.10;;;;;;5010618;28;20683;-50
2021/06/01 02:44:45;;;;;;;3.70;3.47;;;15.40;50.00;;;;;;5009213;28;20636;-50
2021/06/01 02:47:12;;;;;;;4.30;3.90;;;15.40;50.00;;;;;;5011185;28;20628;-49
2021/06/01 02:49:39;;;;;;;3.93;3.13;;;15.40;50.10;;;;;;5011988;28;20672;-49
2021/06/01 02:52:06;;;;;;;4.13;3.20;;;15.40;50.10;;;;;;5011233;28;21181;-50
2021/06/01 02:54:33;;;;;;;3.17;2.97;;;15.40;50.20;;;;;;5012470;28;20632;-49
2021/06/01 02:57:01;;;;;;;3.77;3.47;;;15.40;50.20;;;;;;5005380;28;20628;-50
2021/06/01 02:59:28;;;;;;;5.53;3.83;;;15.40;50.20;;;;;;4993004;28;20676;-50
2021/06/01 03:01:55;;;;;;;3.90;3.60;;;15.30;50.10;;;;;;4992630;28;21264;-50
2021/06/01 03:04:21;;;;;;;3.80;2.90;;;15.30;50.30;;;;;;4998146;28;20999;-49
2021/06/01 03:06:48;;;;;;;3.73;3.37;;;15.20;50.30;;;;;;5011413;28;20624;-49
2021/06/01 03:09:15;;;;;;;3.43;3.20;;;15.20;50.40;;;;;;5000327;28;20730;-49
2021/06/01 03:11:44;;;;;;;8.20;4.07;;;15.20;50.40;;;;;;5011735;28;20628;-49
2021/06/01 03:14:12;;;;;;;4.00;3.17;;;15.30;50.50;;;;;;5011277;28;20632;-49
2021/06/01 03:16:39;;;;;;;7.40;3.03;;;15.30;50.30;;;;;;5011429;28;21171;-49
2021/06/01 03:19:06;;;;;;;4.83;3.63;;;15.30;50.50;;;;;;5010728;28;20671;-49
2021/06/01 03:21:34;;;;;;;3.70;3.40;;;15.30;50.40;;;;;;5009847;28;20663;-49
2021/06/01 03:24:01;;;;;;;4.10;3.70;;;15.20;50.40;;;;;;5008619;28;20686;-49
2021/06/01 03:26:27;;;;;;;4.03;3.70;;;15.20;50.40;;;;;;4996782;28;20620;-49
2021/06/01 03:28:54;;;;;;;3.53;3.23;;;15.20;50.40;;;;;;5009556;28;20663;-50
2021/06/01 03:31:22;;;;;;;5.50;3.90;;;15.20;50.50;;;;;;5009739;28;20663;-50
2021/06/01 03:33:51;;;;;;;3.73;3.37;;;15.20;50.60;;;;;;5009336;28;20695;-49
2021/06/01 03:36:18;;;;;;;8.77;4.20;;;15.20;50.60;;;;;;5009180;28;20639;-50
2021/06/01 03:38:46;;;;;;;4.30;4.00;;;15.20;50.70;;;;;;5008536;28;20833;-50
2021/06/01 03:41:12;;;;;;;4.73;4.33;;;15.10;50.90;;;;;;5009287;28;21211;-50
2021/06/01 03:43:39;;;;;;;5.00;4.50;;;15.00;51.00;;;;;;4996048;28;20628;-50
2021/06/01 03:46:06;;;;;;;8.23;5.03;;;15.00;51.40;;;;;;4994680;28;20634;-49
2021/06/01 03:48:34;;;;;;;4.77;4.27;;;15.00;51.60;;;;;;5010492;28;20656;-50
2021/06/01 03:51:01;;;;;;;4.70;4.30;;;14.90;51.60;;;;;;5011328;28;20668;-50
2021/06/01 03:53:28;;;;;;;4.70;3.60;;;14.80;51.90;;;;;;5010431;28;20678;-50
2021/06/01 03:55:55;;;;;;;4.90;3.73;;;14.80;52.10;;;;;;5010906;28;21008;-50
2021/06/01 03:58:22;;;;;;;4.70;3.93;;;14.80;52.00;;;;;;5009877;28;20682;-49
2021/06/01 04:00:48;;;;;;;3.90;3.53;;;14.90;52.10;;;;;;5003810;28;20759;-50
2021/06/01 04:03:17;;;;;;;7.40;3.37;;;14.90;52.10;;;;;;4993415;28;20624;-49
2021/06/01 04:05:45;;;;;;;3.73;3.43;;;14.90;52.10;;;;;;5011260;28;20686;-50
2021/06/01 04:08:12;;;;;;;3.20;2.90;;;14.90;52.20;;;;;;5006289;28;20691;-50
2021/06/01 04:10:38;;;;;;;6.50;3.87;;;14.90;52.10;;;;;;5010947;28;20664;-50
2021/06/01 04:13:05;;;;;;;3.70;3.40;;;15.00;52.10;;;;;;5010772;28;20705;-50
2021/06/01 04:15:32;;;;;;;3.70;3.33;;;15.00;52.00;;;;;;5009774;28;20686;-50
2021/06/01 04:17:58;;;;;;;4.13;3.80;;;15.00;51.80;;;;;;5008808;28;20660;-50
2021/06/01 04:20:25;;;;;;;3.23;3.03;;;15.00;52.00;;;;;;5009844;28;20678;-50
2021/06/01 04:22:53;;;;;;;3.40;3.10;;;15.00;52.20;;;;;;5009506;28;20681;-49
2021/06/01 04:25:20;;;;;;;13.00;4.80;;;15.00;52.30;;;;;;5006379;28;21168;-48
2021/06/01 04:27:50;;;;;;;3.73;3.43;;;15.00;52.20;;;;;;5009331;28;20694;-49
2021/06/01 04:30:18;;;;;;;4.17;3.87;;;15.00;52.40;;;;;;5003999;28;20657;-49
2021/06/01 04:32:45;;;;;;;3.20;3.00;;;15.00;52.30;;;;;;5002127;28;20631;-50
2021/06/01 04:35:12;;;;;;;3.50;3.20;;;15.00;52.40;;;;;;5015432;28;20624;-50
2021/06/01 04:37:39;;;;;;;3.90;3.60;;;15.10;52.40;;;;;;5009571;28;20647;-50
2021/06/01 04:40:10;;;;;;;4.73;3.80;;;15.20;52.50;;;;;;5010545;28;20628;-49
2021/06/01 04:42:37;;;;;;;5.53;3.87;;;15.30;52.50;;;;;;5010908;28;20666;-50
2021/06/01 04:45:04;;;;;;;4.47;3.40;;;15.30;52.30;;;;;;5010080;28;20709;-51
2021/06/01 04:47:31;;;;;;;3.00;2.70;;;15.40;52.20;;;;;;5012872;28;20712;-50
2021/06/01 04:49:57;;;;;;;4.63;3.53;;;15.40;52.00;;;;;;5013736;28;20726;-50
2021/06/01 04:52:24;;;;;;;3.63;3.33;;;15.40;51.80;;;;;;5014227;28;20701;-50
2021/06/01 04:54:51;;;;;;;4.27;3.87;;;15.50;51.80;;;;;;5014037;28;20623;-49
2021/06/01 04:57:19;;;;;;;3.70;3.07;;;15.50;51.70;;;;;;5014221;28;20689;-50
2021/06/01 04:59:46;;;;;;;3.87;3.57;;;15.60;51.80;;;;;;5014378;28;21090;-48
2021/06/01 05:02:13;;;;;;;3.40;3.10;;;15.60;51.90;;;;;;5012385;28;20635;-48
2021/06/01 05:04:39;;;;;;;4.57;3.80;;;15.60;51.70;;;;;;5012359;28;20675;-49
2021/06/01 05:07:06;;;;;;;4.33;3.00;;;15.70;51.80;;;;;;5012078;28;20705;-48
2021/06/01 05:09:33;;;;;;;3.77;3.47;;;15.70;51.90;;;;;;5011982;28;20663;-49
2021/06/01 05:12:00;;;;;;;4.17;3.43;;;15.80;52.00;;;;;;5012015;28;20671;-48
2021/06/01 05:14:28;;;;;;;3.73;3.40;;;15.80;51.70;;;;;;5011897;28;20619;-49
2021/06/01 05:16:54;;;;;;;3.10;2.90;;;15.90;51.60;;;;;;5014538;28;20623;-50
2021/06/01 05:19:21;;;;;;;5.87;3.67;;;15.90;51.60;;;;;;5012261;28;20651;-48
2021/06/01 05:21:48;;;;;;;6.33;3.77;;;15.90;51.60;;;;;;5021196;28;20627;-49
2021/06/01 05:24:15;;;;;;;9.00;3.73;;;15.90;51.70;;;;;;5020004;28;21207;-49
2021/06/01 05:26:41;;;;;;;5.00;3.60;;;15.90;51.70;;;;;;5013462;28;20635;-49
2021/06/01 05:29:08;;;;;;;3.10;2.90;;;16.00;51.70;;;;;;5012535;28;21059;-47
2021/06/01 05:31:45;;;;;;;3.83;3.53;;;16.10;52.00;;;;;;5012836;28;20721;-48
2021/06/01 05:34:12;;;;;;;6.70;4.00;;;16.10;51.80;;;;;;4999463;28;21233;-50
2021/06/01 05:36:39;;;;;;;3.50;3.20;;;16.20;51.80;;;;;;4994855;28;20742;-49
2021/06/01 05:39:07;;;;;;;4.80;4.40;;;16.30;51.40;;;;;;5012310;28;20664;-50
2021/06/01 05:41:34;;;;;;;3.90;3.60;;;16.30;51.10;;;;;;5006799;28;20635;-49
2021/06/01 05:44:01;;;;;;;3.30;3.10;;;16.30;51.00;;;;;;4993274;28;20687;-49
2021/06/01 05:46:28;;;;;;;11.77;4.53;;;16.40;51.00;;;;;;4991827;28;20656;-50
2021/06/01 05:48:57;;;;;;;4.40;4.00;;;16.40;51.10;;;;;;5003567;28;21309;-48
2021/06/01 05:51:30;;;;;;;4.10;3.70;;;16.40;51.00;;;;;;5009775;28;20659;-50
2021/06/01 05:53:57;;;;;;;6.17;4.50;;;16.50;50.90;;;;;;5022520;28;20690;-49
2021/06/01 05:56:23;;;;;;;4.30;3.77;;;16.50;50.60;;;;;;5011501;28;21097;-48
2021/06/01 05:58:50;;;;;;;6.03;3.50;;;16.60;50.50;;;;;;4995748;28;20730;-48
2021/06/01 06:01:17;;;;;;;3.67;3.37;;;16.60;50.20;;;;;;5001402;28;20617;-49
2021/06/01 06:03:44;;;;;;;3.23;3.03;;;16.70;50.40;;;;;;5000165;28;20631;-49
2021/06/01 06:06:13;;;;;;;4.23;3.17;;;16.80;49.90;;;;;;5016776;28;20631;-48
2021/06/01 06:08:40;;;;;;;4.03;3.03;;;16.80;49.60;;;;;;5016260;28;20697;-49
2021/06/01 06:11:07;;;;;;;3.90;3.50;;;16.80;49.60;;;;;;4991849;28;20661;-49
2021/06/01 06:13:33;;;;;;;3.20;3.00;;;16.90;49.40;;;;;;5000927;28;20694;-49
2021/06/01 06:16:00;;;;;;;4.13;3.43;;;16.90;49.60;;;;;;5008608;28;21195;-50
2021/06/01 06:18:28;;;;;;;6.10;3.33;;;17.00;49.60;;;;;;5012250;28;20651;-49
2021/06/01 06:20:59;;;;;;;4.87;3.30;;;17.10;49.30;;;;;;5011969;28;20624;-49
2021/06/01 06:23:27;;;;;;;3.57;3.27;;;17.10;49.20;;;;;;5012823;28;20619;-50
2021/06/01 06:25:54;;;;;;;3.90;3.60;;;17.20;49.40;;;;;;5012157;28;21033;-50
2021/06/01 06:28:21;;;;;;;4.37;3.97;;;17.20;49.50;;;;;;5010456;28;21068;-50
2021/06/01 06:30:48;;;;;;;3.73;3.40;;;17.30;49.40;;;;;;5023348;28;20704;-50
2021/06/01 06:33:15;;;;;;;5.10;3.73;;;17.30;49.30;;;;;;5021997;28;21506;-50
2021/06/01 06:35:41;;;;;;;5.33;4.80;;;17.40;50.20;;;;;;5010540;28;20690;-51
2021/06/01 06:38:08;;;;;;;4.17;3.77;;;17.50;51.00;;;;;;5010155;28;20725;-50
2021/06/01 06:40:36;;;;;;;5.10;4.00;;;17.60;50.50;;;;;;5010951;28;20624;-49
2021/06/01 06:43:03;;;;;;;3.63;3.33;;;17.60;50.40;;;;;;5009942;28;21200;-50
2021/06/01 06:45:32;;;;;;;6.00;4.13;;;17.70;50.30;;;;;;5010786;28;20720;-50
2021/06/01 06:48:05;;;;;;;6.07;4.90;;;17.70;50.10;;;;;;5010232;28;20713;-50
2021/06/01 06:50:32;;;;;;;4.47;4.07;;;17.80;50.00;;;;;;5010211;28;20664;-50
2021/06/01 06:52:59;;;;;;;4.97;4.47;;;17.90;49.70;;;;;;5010305;28;20785;-50
2021/06/01 06:55:26;;;;;;;5.57;3.23;;;17.90;49.60;;;;;;5010436;28;20687;-51
2021/06/01 06:57:54;;;;;;;3.60;3.30;;;18.00;49.90;;;;;;5009502;28;20688;-50
2021/06/01 07:00:23;;;;;;;4.20;3.90;;;18.10;49.60;;;;;;5016520;28;20638;-52
2021/06/01 07:02:50;;;;;;;4.70;3.77;;;18.20;49.20;;;;;;5019027;28;21160;-50
2021/06/01 07:05:18;;;;;;;4.10;3.70;;;18.20;49.10;;;;;;5010202;28;20631;-50
2021/06/01 07:07:45;;;;;;;11.87;4.70;;;18.30;49.40;;;;;;5009778;28;20667;-50
2021/06/01 07:10:13;;;;;;;7.70;6.43;;;18.30;49.20;;;;;;5009142;28;20620;-50
2021/06/01 07:12:42;;;;;;;4.17;3.20;;;18.40;49.50;;;;;;5009038;28;21132;-49
2021/06/01 07:15:14;;;;;;;5.23;4.80;;;18.50;49.50;;;;;;5009855;28;20775;-50
2021/06/01 07:17:44;;;;;;;4.90;4.03;;;18.60;49.70;;;;;;5009387;28;20636;-50
2021/06/01 07:20:13;;;;;;;4.63;4.30;;;18.60;49.60;;;;;;5009592;28;20704;-50
2021/06/01 07:22:40;;;;;;;5.27;4.77;;;18.80;49.40;;;;;;5009558;28;20690;-50
2021/06/01 07:25:08;;;;;;;6.93;4.83;;;18.90;49.40;;;;;;5009521;28;20682;-50
2021/06/01 07:27:35;;;;;;;4.40;4.00;;;19.20;49.40;;;;;;5009526;28;21160;-51
2021/06/01 07:30:01;;;;;;;4.70;4.17;;;19.40;49.00;;;;;;5010163;28;20939;-50
2021/06/01 07:32:30;;;;;;;4.83;4.40;;;19.60;49.00;;;;;;5009340;28;20817;-51
2021/06/01 07:34:57;;;;;;;4.60;4.20;;;19.90;48.60;;;;;;5009472;28;20686;-51
2021/06/01 07:37:23;;;;;;;4.57;3.50;;;20.10;48.50;;;;;;5008853;28;20674;-51
2021/06/01 07:39:50;;;;;;;5.73;5.23;;;20.40;47.90;;;;;;5009862;28;20698;-50
2021/06/01 07:42:17;;;;;;;5.87;3.63;;;20.60;47.90;;;;;;5009678;28;20619;-51
2021/06/01 07:44:44;;;;;;;4.23;3.83;;;20.80;47.30;;;;;;5009975;28;20643;-50
2021/06/01 07:47:10;;;;;;;4.70;3.83;;;20.90;46.10;;;;;;5008657;28;20938;-51
2021/06/01 07:49:39;;;;;;;4.10;3.80;;;21.10;46.60;;;;;;5009308;28;21015;-51
2021/06/01 07:52:06;;;;;;;4.03;3.73;;;21.30;45.90;;;;;;5009372;28;20660;-51
2021/06/01 07:54:33;;;;;;;3.93;3.63;;;21.40;45.40;;;;;;5008765;28;20656;-50
2021/06/01 07:56:59;;;;;;;4.83;3.60;;;21.50;44.90;;;;;;5006176;28;20636;-51
2021/06/01 07:59:26;;;;;;;4.67;3.80;;;21.70;44.80;;;;;;5008391;28;21236;-51
2021/06/01 08:01:53;;;;;;;6.10;5.60;;;22.00;43.50;;;;;;5011768;28;21163;-51
2021/06/01 08:04:20;;;;;;;6.03;4.40;;;22.10;43.10;;;;;;5008945;28;21264;-51
2021/06/01 08:06:48;;;;;;;3.93;3.57;;;22.20;42.50;;;;;;5008781;28;20640;-51
2021/06/01 08:09:15;;;;;;;8.37;6.70;;;22.30;41.50;;;;;;5008981;28;20651;-51
2021/06/01 08:11:42;;;;;;;4.67;3.83;;;22.40;42.00;;;;;;5009046;28;21068;-51
2021/06/01 08:14:08;;;;;;;3.90;3.60;;;22.50;41.90;;;;;;5014212;28;20615;-51
2021/06/01 08:16:36;;;;;;;4.17;3.83;;;22.70;41.70;;;;;;5020940;28;20705;-51
2021/06/01 08:19:07;;;;;;;4.10;3.67;;;23.00;41.40;;;;;;5008739;28;20714;-51
2021/06/01 08:27:00;;;;;;;5.73;4.87;;;23.50;39.30;;;;;;5506654;22;20833;-50
2021/06/01 08:29:27;;;;;;;4.40;4.00;;;23.50;39.20;;;;;;5047520;28;20653;-51
2021/06/01 08:31:54;;;;;;;3.70;3.40;;;23.60;38.90;;;;;;5042531;28;20679;-50
2021/06/01 08:34:20;;;;;;;4.43;4.13;;;23.60;37.30;;;;;;5048374;28;20706;-50
2021/06/01 08:36:49;;;;;;;10.93;4.00;;;23.60;37.00;;;;;;5041984;28;21409;-50
2021/06/01 08:39:15;;;;;;;5.27;4.23;;;23.50;37.00;;;;;;5027816;28;20690;-49
2021/06/01 08:41:43;;;;;;;3.70;3.37;;;23.70;37.30;;;;;;5032979;28;21161;-49
2021/06/01 08:44:12;;;;;;;4.40;4.10;;;23.90;37.30;;;;;;5032863;28;20627;-51
2021/06/01 08:46:39;;;;;;;4.80;3.80;;;24.10;37.30;;;;;;5024514;28;20732;-50
2021/06/01 08:49:06;;;;;;;5.40;3.60;;;24.20;36.10;;;;;;5031872;28;20688;-50
2021/06/01 08:51:33;;;;;;;3.90;3.60;;;24.20;36.00;;;;;;5031807;28;20655;-50
2021/06/01 08:54:00;;;;;;;3.73;3.20;;;24.10;36.20;;;;;;5031583;28;20630;-50
2021/06/01 08:56:26;;;;;;;4.87;3.57;;;24.20;35.60;;;;;;5031877;28;21183;-50
2021/06/01 08:58:53;;;;;;;3.93;3.63;;;24.20;35.40;;;;;;5032361;28;20685;-49
2021/06/01 09:01:21;;;;;;;3.97;2.87;;;24.30;34.60;;;;;;5032197;28;21186;-51
2021/06/01 09:03:51;;;;;;;3.83;3.53;;;24.30;34.50;;;;;;5032005;28;20697;-51
2021/06/01 09:06:21;;;;;;;4.30;2.77;;;24.30;34.30;;;;;;5031896;28;20662;-51
2021/06/01 09:09:08;;;;;;;3.77;3.10;;;24.20;34.20;;;;;;5011746;28;20628;-50
2021/06/01 09:11:42;;;;;;;3.80;3.50;;;24.10;33.50;;;;;;5012394;28;20741;-50
2021/06/01 09:14:27;;;;;;;3.30;2.97;;;24.00;33.70;;;;;;5011986;28;21167;-50
2021/06/01 09:22:31;;;;;;;4.67;3.47;;;23.90;33.90;;;;;;5015733;28;20615;-49
2021/06/01 09:25:05;;;;;;;5.87;3.90;;;24.00;33.60;;;;;;5031194;28;20630;-51
2021/06/01 09:27:43;;;;;;;6.67;4.07;;;24.10;34.10;;;;;;5031420;28;20663;-49
2021/06/01 09:30:11;;;;;;;4.30;3.90;;;24.50;33.50;;;;;;5031783;28;20634;-50
2021/06/01 09:32:44;;;;;;;3.70;3.13;;;24.80;32.20;;;;;;5030772;28;20696;-50
2021/06/01 09:35:12;;;;;;;3.47;3.17;;;25.20;32.20;;;;;;5030947;28;20627;-50
2021/06/01 09:37:40;;;;;;;3.17;2.97;;;25.60;31.60;;;;;;5030110;28;21231;-51
2021/06/01 09:40:11;;;;;;;3.57;3.27;;;26.10;31.30;;;;;;5031025;28;20630;-51
2021/06/01 09:42:39;;;;;;;4.80;3.67;;;26.40;29.60;;;;;;5030763;28;20615;-50
2021/06/01 09:45:10;;;;;;;3.13;2.93;;;26.70;29.60;;;;;;5031110;28;20626;-51
2021/06/01 09:47:52;;;;;;;3.77;3.30;;;26.80;29.40;;;;;;5030241;28;20781;-51
2021/06/01 09:50:27;;;;;;;3.20;3.00;;;26.80;29.00;;;;;;5029997;28;20712;-50
2021/06/01 09:52:59;;;;;;;3.20;3.00;;;26.60;29.00;;;;;;5030885;28;21009;-50
2021/06/01 09:55:31;;;;;;;4.37;2.70;;;26.30;29.10;;;;;;5031008;28;20626;-50
2021/06/01 09:57:58;;;;;;;3.53;3.30;;;25.80;29.40;;;;;;5030918;28;20692;-50
2021/06/01 10:00:26;;;;;;;3.93;3.63;;;25.50;29.80;;;;;;5025936;28;22956;-49
2021/06/01 10:02:56;;;;;;;3.03;2.83;;;25.20;30.00;;;;;;5011155;28;20695;-50
2021/06/01 10:05:23;;;;;;;4.70;3.00;;;25.00;30.40;;;;;;5019951;28;20668;-49
2021/06/01 10:07:51;;;;;;;3.80;2.97;;;24.90;30.60;;;;;;5030202;28;20721;-50
2021/06/01 10:10:20;;;;;;;5.00;4.60;;;24.80;30.00;;;;;;5030729;28;20665;-49
2021/06/01 10:12:49;;;;;;;3.10;2.60;;;24.70;30.30;;;;;;5030301;28;21067;-50
2021/06/01 10:15:17;;;;;;;3.30;3.10;;;24.60;30.70;;;;;;5030587;28;20680;-49
2021/06/01 10:17:44;;;;;;;4.23;3.50;;;24.50;30.50;;;;;;5030392;28;20732;-50
2021/06/01 10:20:13;;;;;;;3.57;2.80;;;24.30;31.60;;;;;;5031273;28;20686;-49
2021/06/01 10:22:40;;;;;;;2.80;2.60;;;24.30;31.20;;;;;;5030783;28;20626;-49
2021/06/01 10:25:07;;;;;;;3.00;2.83;;;24.30;30.80;;;;;;5030733;28;20638;-50
2021/06/01 10:27:34;;;;;;;4.37;2.97;;;24.30;30.40;;;;;;5029810;28;20671;-50
2021/06/01 10:30:01;;;;;;;3.00;2.80;;;24.40;30.40;;;;;;5029793;28;20657;-50
2021/06/01 10:32:28;;;;;;;2.93;2.73;;;24.50;30.70;;;;;;5029860;28;21207;-50
2021/06/01 10:34:55;;;;;;;2.63;2.40;;;24.60;30.90;;;;;;5030487;28;20905;-51
2021/06/01 10:48:58;;;;;;;3.47;3.07;;;24.90;30.20;;;;;;5009107;28;21037;-49
2021/06/01 10:51:29;;;;;;;2.53;2.33;;;25.20;29.90;;;;;;5010390;28;21091;-49
2021/06/01 10:53:57;;;;;;;6.20;3.07;;;25.30;29.80;;;;;;5010008;28;20615;-50
2021/06/01 10:56:24;;;;;;;2.93;2.73;;;25.40;30.00;;;;;;5026866;28;20711;-50
2021/06/01 10:59:07;;;;;;;3.57;3.20;;;25.30;29.60;;;;;;5030169;28;20677;-49
2021/06/01 11:01:58;;;;;;;2.93;2.73;;;25.00;29.70;;;;;;5029379;28;20709;-50
2021/06/01 11:04:26;;;;;;;6.33;4.70;;;24.90;30.00;;;;;;5028101;28;20926;-50
2021/06/01 11:10:04;;;;;;;2.90;2.70;;;25.10;29.80;;;;;;4987184;28;20707;-50
2021/06/01 11:12:41;;;;;;;5.00;4.50;;;25.50;29.90;;;;;;5017902;28;21244;-51
2021/06/01 11:15:36;;;;;;;3.23;3.00;;;25.70;29.40;;;;;;5024146;28;21143;-51
2021/06/01 11:18:16;;;;;;;3.67;3.03;;;25.90;29.70;;;;;;5024060;28;20685;-50
2021/06/01 11:21:30;;;;;;;3.50;2.83;;;26.00;29.70;;;;;;5017018;28;20678;-50
2021/06/01 11:35:46;;;;;;;4.27;3.27;;;27.30;28.00;;;;;;5023050;28;20705;-50
2021/06/01 11:38:20;;;;;;;3.70;3.40;;;27.20;28.40;;;;;;5028821;28;20647;-49
2021/06/01 11:40:58;;;;;;;3.33;2.93;;;27.00;27.90;;;;;;5029317;28;20780;-50
2021/06/01 11:43:26;;;;;;;4.17;3.43;;;26.90;28.60;;;;;;5028947;28;20603;-49
2021/06/01 11:45:57;;;;;;;3.13;2.93;;;26.70;29.00;;;;;;5028530;28;21068;-49
2021/06/01 11:51:13;;;;;;;2.70;2.50;;;26.40;29.40;;;;;;5016925;28;20709;-50
2021/06/01 11:53:51;;;;;;;4.60;3.30;;;26.40;29.30;;;;;;5020721;28;20798;-50
2021/06/01 11:56:37;;;;;;;4.03;3.63;;;26.70;29.40;;;;;;5015696;28;20717;-51
2021/06/01 12:02:06;;;;;;;3.70;3.33;;;27.30;29.50;;;;;;5031827;28;20606;-50
2021/06/01 12:18:37;;;;;;;3.50;3.20;;;26.60;28.80;;;;;;5036206;28;20630;-50
2021/06/01 12:21:04;;;;;;;4.10;3.80;;;26.70;28.90;;;;;;5035318;28;20626;-51
2021/06/01 12:23:33;;;;;;;5.77;3.20;;;26.90;28.50;;;;;;5035601;28;20619;-50
2021/06/01 12:26:03;;;;;;;3.40;3.10;;;26.90;28.50;;;;;;5032321;28;21018;-50
2021/06/01 12:31:17;;;;;;;4.33;3.10;;;26.80;28.10;;;;;;5035348;28;20689;-51
2021/06/01 12:33:44;;;;;;;3.53;2.90;;;26.60;28.10;;;;;;5035755;28;20740;-51
2021/06/01 12:41:44;;;;;;;3.73;3.07;;;26.50;29.00;;;;;;4995557;28;20678;-50
2021/06/01 12:44:12;;;;;;;4.90;2.57;;;26.80;27.60;;;;;;5015990;28;20680;-48
2021/06/01 12:46:47;;;;;;;2.87;2.67;;;26.90;27.30;;;;;;5015374;28;20686;-50
2021/06/01 13:12:14;;;;;;;2.80;2.37;;;27.30;27.00;;;;;;5023731;28;20682;-50
2021/06/01 13:14:48;;;;;;;3.47;3.00;;;27.20;27.20;;;;;;5032182;28;20937;-51
2021/06/01 13:20:14;;;;;;;5.40;3.30;;;27.70;27.30;;;;;;5031945;28;21143;-50
2021/06/01 13:22:51;;;;;;;5.00;3.40;;;27.90;27.20;;;;;;5030771;28;21117;-49
2021/06/01 13:36:51;;;;;;;2.97;2.77;;;28.60;26.20;;;;;;5031493;28;21030;-50
2021/06/01 13:39:24;;;;;;;2.97;2.77;;;28.60;26.00;;;;;;5030434;28;20655;-49
2021/06/01 13:47:23;;;;;;;4.63;2.47;;;28.40;26.30;;;;;;5031700;28;20641;-50
2021/06/01 13:49:53;;;;;;;2.83;2.60;;;28.40;26.50;;;;;;5031767;28;20627;-49
2021/06/01 13:52:47;;;;;;;3.27;2.70;;;28.70;26.50;;;;;;5031621;28;21092;-50
2021/06/01 13:55:18;;;;;;;3.53;2.60;;;29.40;26.20;;;;;;5031840;28;20631;-49
2021/06/01 13:58:09;;;;;;;3.80;2.60;;;30.30;25.20;;;;;;5030043;28;20674;-50
2021/06/01 14:00:40;;;;;;;2.93;2.70;;;30.90;23.90;;;;;;5031162;28;20689;-50
2021/06/01 14:36:30;;;;;;;5.00;2.30;;;36.00;19.00;;;;;;5031005;28;20627;-50
2021/06/01 14:39:12;;;;;;;2.70;2.50;;;36.10;19.00;;;;;;5030936;28;20625;-50
2021/06/01 15:09:39;;;;;;;3.37;3.07;;;35.30;20.30;;;;;;5024372;28;20670;-51
2021/06/01 15:28:53;;;;;;;4.27;2.40;;;36.00;19.30;;;;;;5028986;28;20639;-50
2021/06/01 15:47:59;;;;;;;3.60;2.10;;;35.40;19.20;;;;;;5026177;28;20638;-50
2021/06/01 15:50:35;;;;;;;4.27;2.40;;;35.00;19.50;;;;;;5029225;28;20627;-50
2021/06/01 16:11:15;;;;;;;2.77;2.57;;;34.70;20.30;;;;;;5028186;28;20681;-50
2021/06/01 16:32:16;;;;;;;2.80;2.60;;;29.30;22.60;;;;;;5009711;28;20654;-50
2021/06/01 16:43:16;;;;;;;3.37;3.07;;;28.30;25.20;;;;;;5029220;28;20673;-50
2021/06/01 17:05:00;;;;;;;3.33;3.00;;;28.00;26.40;;;;;;5032632;28;20633;-50
2021/06/01 17:07:37;;;;;;;4.00;3.10;;;28.00;26.60;;;;;;5031845;28;20650;-50
2021/06/01 17:12:52;;;;;;;3.10;2.73;;;28.00;26.20;;;;;;5026706;28;20672;-50
2021/06/01 17:15:19;;;;;;;2.80;2.60;;;27.90;26.00;;;;;;5031438;28;20623;-50
2021/06/01 17:17:48;;;;;;;2.63;2.43;;;27.80;25.70;;;;;;5031421;28;20658;-50
2021/06/01 17:20:38;;;;;;;2.63;2.43;;;27.80;25.70;;;;;;5031980;28;20634;-49
2021/06/01 17:23:30;;;;;;;2.77;2.57;;;27.80;26.00;;;;;;5031446;28;20619;-49
2021/06/01 17:34:41;;;;;;;2.30;2.10;;;27.60;25.80;;;;;;5032494;28;20642;-49
2021/06/01 17:37:09;;;;;;;3.50;3.20;;;27.50;26.00;;;;;;5032586;28;20655;-49